createdAt,value
2022-09-03T00:00:11.238Z,17.90
2022-09-03T00:02:45.856Z,17.95
2022-09-03T00:05:21.203Z,18.03
2022-09-03T00:07:56.339Z,17.89
2022-09-03T00:10:32.865Z,17.95
2022-09-03T00:13:04.300Z,17.87
2022-09-03T00:15:37.813Z,17.87
2022-09-03T00:18:08.005Z,17.67
2022-09-03T00:20:41.622Z,17.62
2022-09-03T00:23:12.323Z,17.79
2022-09-03T00:25:44.688Z,17.60
2022-09-03T00:28:15.860Z,17.63
2022-09-03T00:30:48.710Z,17.71
2022-09-03T00:33:22.609Z,17.49
2022-09-03T00:35:56.028Z,17.41
2022-09-03T00:38:24.544Z,17.58
2022-09-03T00:41:06.956Z,17.57
2022-09-03T00:43:48.300Z,17.33
2022-09-03T00:46:24.525Z,17.44
2022-09-03T00:49:20.285Z,17.53
2022-09-03T00:51:56.073Z,17.47
2022-09-03T00:54:30.511Z,17.34
2022-09-03T00:57:11.675Z,17.17
2022-09-03T00:59:46.986Z,17.12
2022-09-03T01:02:22.462Z,17.08
2022-09-03T01:05:01.516Z,16.94
2022-09-03T01:07:35.165Z,17.09
2022-09-03T01:10:14.754Z,17.22
2022-09-03T01:12:52.743Z,17.08
2022-09-03T01:15:25.594Z,17.06
2022-09-03T01:18:04.084Z,16.97
2022-09-03T01:20:42.631Z,17.12
2022-09-03T01:23:59.289Z,17.05
2022-09-03T01:26:40.627Z,16.72
2022-09-03T01:29:18.456Z,16.83
2022-09-03T01:31:51.991Z,16.75
2022-09-03T01:34:33.461Z,16.86
2022-09-03T01:37:09.137Z,16.88
2022-09-03T01:39:48.050Z,16.87
2022-09-03T01:42:23.137Z,16.81
2022-09-03T01:45:09.009Z,16.64
2022-09-03T01:47:48.086Z,16.60
2022-09-03T01:50:37.854Z,16.64
2022-09-03T01:53:11.488Z,16.63
2022-09-03T01:55:48.314Z,16.75
2022-09-03T01:58:21.363Z,16.68
2022-09-03T02:00:58.214Z,16.78
2022-09-03T02:03:28.902Z,16.56
2022-09-03T02:05:58.677Z,16.59
2022-09-03T02:08:26.856Z,16.65
2022-09-03T02:11:01.986Z,16.74
2022-09-03T02:13:34.806Z,16.52
2022-09-03T02:16:13.227Z,16.53
2022-09-03T02:18:43.199Z,16.58
2022-09-03T02:21:12.964Z,16.65
2022-09-03T02:23:42.334Z,16.30
2022-09-03T02:26:13.499Z,16.63
2022-09-03T02:28:42.182Z,16.38
2022-09-03T02:31:12.606Z,16.41
2022-09-03T02:33:46.826Z,16.35
2022-09-03T02:36:17.001Z,16.34
2022-09-03T02:38:46.886Z,16.12
2022-09-03T02:41:16.177Z,16.31
2022-09-03T02:43:49.404Z,16.47
2022-09-03T02:46:24.467Z,16.17
2022-09-03T02:48:54.481Z,15.99
2022-09-03T02:51:23.130Z,15.92
2022-09-03T02:53:53.454Z,16.02
2022-09-03T02:56:26.991Z,16.03
2022-09-03T02:58:56.250Z,16.14
2022-09-03T03:01:26.629Z,15.98
2022-09-03T03:03:56.458Z,16.23
2022-09-03T03:06:25.079Z,15.97
2022-09-03T03:08:57.156Z,16.08
2022-09-03T03:11:27.394Z,16.03
2022-09-03T03:13:56.929Z,15.82
2022-09-03T03:16:27.545Z,16.03
2022-09-03T03:18:57.482Z,15.78
2022-09-03T03:21:26.008Z,15.78
2022-09-03T03:23:55.322Z,15.90
2022-09-03T03:26:24.396Z,15.96
2022-09-03T03:28:58.631Z,15.98
2022-09-03T03:31:29.529Z,15.85
2022-09-03T03:34:00.135Z,15.74
2022-09-03T03:36:32.247Z,15.63
2022-09-03T03:39:02.329Z,15.57
2022-09-03T03:41:35.252Z,15.88
2022-09-03T03:44:05.675Z,15.76
2022-09-03T03:46:38.668Z,15.87
2022-09-03T03:49:07.645Z,16.03
2022-09-03T03:51:38.082Z,15.71
2022-09-03T03:54:07.484Z,15.82
2022-09-03T03:56:36.917Z,15.58
2022-09-03T03:59:05.924Z,15.65
2022-09-03T04:01:36.943Z,15.69
2022-09-03T04:04:06.549Z,15.68
2022-09-03T04:06:36.153Z,15.77
2022-09-03T04:09:05.154Z,15.66
2022-09-03T04:11:35.988Z,15.66
2022-09-03T04:14:05.287Z,15.58
2022-09-03T04:16:34.239Z,15.29
2022-09-03T04:19:03.902Z,15.64
2022-09-03T04:21:32.275Z,15.79
2022-09-03T04:24:01.165Z,15.62
2022-09-03T04:26:32.197Z,15.60
2022-09-03T04:29:02.432Z,15.75
2022-09-03T04:31:32.399Z,15.59
2022-09-03T04:34:01.291Z,15.39
2022-09-03T04:36:33.565Z,15.53
2022-09-03T04:39:02.868Z,15.72
2022-09-03T04:41:35.225Z,15.51
2022-09-03T04:44:04.426Z,15.39
2022-09-03T04:46:34.213Z,15.49
2022-09-03T04:49:03.531Z,15.51
2022-09-03T04:51:39.230Z,15.60
2022-09-03T04:54:10.070Z,15.58
2022-09-03T04:56:40.700Z,15.50
2022-09-03T04:59:10.283Z,15.48
2022-09-03T05:01:41.000Z,15.61
2022-09-03T05:04:09.674Z,15.65
2022-09-03T05:06:40.457Z,15.56
2022-09-03T05:09:09.765Z,15.45
2022-09-03T05:11:39.363Z,15.66
2022-09-03T05:14:12.000Z,15.55
2022-09-03T05:16:41.376Z,15.44
2022-09-03T05:19:09.735Z,15.32
2022-09-03T05:21:41.541Z,15.76
2022-09-03T05:24:11.556Z,15.57
2022-09-03T05:26:42.049Z,15.64
2022-09-03T05:29:10.430Z,15.53
2022-09-03T05:31:40.853Z,15.84
2022-09-03T05:34:16.433Z,15.86
2022-09-03T05:36:49.972Z,15.96
2022-09-03T05:39:19.530Z,15.96
2022-09-03T05:41:52.400Z,16.04
2022-09-03T05:44:23.297Z,15.77
2022-09-03T05:46:55.204Z,15.93
2022-09-03T05:49:25.009Z,16.11
2022-09-03T05:51:54.666Z,15.95
2022-09-03T05:54:24.008Z,16.22
2022-09-03T05:56:52.300Z,15.83
2022-09-03T05:59:22.009Z,16.11
2022-09-03T06:01:53.740Z,16.18
2022-09-03T06:04:26.214Z,16.39
2022-09-03T06:06:57.451Z,16.29
2022-09-03T06:09:26.877Z,16.16
2022-09-03T06:11:57.301Z,16.34
2022-09-03T06:14:28.193Z,16.60
2022-09-03T06:16:57.405Z,16.72
2022-09-03T06:19:25.601Z,16.55
2022-09-03T06:21:55.540Z,16.54
2022-09-03T06:24:28.139Z,16.92
2022-09-03T06:26:57.692Z,16.76
2022-09-03T06:29:27.775Z,16.68
2022-09-03T06:31:56.889Z,16.60
2022-09-03T06:34:27.297Z,16.84
2022-09-03T06:36:56.338Z,16.86
2022-09-03T06:39:27.416Z,16.85
2022-09-03T06:41:56.342Z,16.92
2022-09-03T06:44:41.953Z,16.97
2022-09-03T06:47:10.291Z,16.94
2022-09-03T06:49:39.612Z,17.16
2022-09-03T06:52:09.368Z,17.24
2022-09-03T06:54:40.850Z,17.33
2022-09-03T06:57:10.529Z,17.20
2022-09-03T06:59:40.068Z,17.19
2022-09-03T07:02:08.941Z,17.48
2022-09-03T07:04:38.570Z,17.45
2022-09-03T07:07:13.350Z,17.39
2022-09-03T07:09:48.118Z,17.62
2022-09-03T07:12:19.370Z,17.56
2022-09-03T07:14:48.731Z,17.57
2022-09-03T07:17:20.462Z,17.65
2022-09-03T07:19:49.417Z,17.81
2022-09-03T07:22:18.993Z,17.87
2022-09-03T07:24:48.796Z,17.95
2022-09-03T07:27:18.832Z,18.00
2022-09-03T07:29:47.352Z,17.93
2022-09-03T07:32:16.946Z,17.77
2022-09-03T07:34:45.343Z,17.90
2022-09-03T07:37:14.398Z,18.09
2022-09-03T07:39:44.110Z,18.06
2022-09-03T07:42:13.858Z,18.32
2022-09-03T07:44:43.192Z,18.30
2022-09-03T07:47:11.584Z,18.59
2022-09-03T07:49:41.004Z,18.39
2022-09-03T07:52:11.996Z,18.71
2022-09-03T07:54:44.691Z,18.69
2022-09-03T07:57:15.023Z,18.88
2022-09-03T07:59:44.249Z,18.68
2022-09-03T08:02:12.392Z,18.76
2022-09-03T08:04:43.558Z,18.82
2022-09-03T08:07:12.489Z,18.82
2022-09-03T08:09:41.947Z,18.93
2022-09-03T08:12:10.438Z,18.89
2022-09-03T08:14:41.392Z,19.09
2022-09-03T08:17:12.781Z,19.22
2022-09-03T08:19:43.750Z,19.24
2022-09-03T08:22:12.371Z,19.31
2022-09-03T08:24:43.052Z,19.33
2022-09-03T08:27:11.440Z,19.52
2022-09-03T08:29:42.353Z,19.73
2022-09-03T08:32:12.073Z,19.85
2022-09-03T08:34:42.627Z,19.96
2022-09-03T08:37:12.686Z,20.19
2022-09-03T08:39:51.095Z,20.21
2022-09-03T08:42:40.094Z,20.41
2022-09-03T08:45:11.889Z,20.41
2022-09-03T08:47:43.817Z,20.71
2022-09-03T08:50:18.299Z,20.94
2022-09-03T08:52:49.308Z,21.02
2022-09-03T08:55:23.499Z,21.10
2022-09-03T08:57:52.956Z,21.11
2022-09-03T09:00:22.881Z,21.29
2022-09-03T09:03:00.501Z,21.40
2022-09-03T09:05:44.026Z,21.56
2022-09-03T09:08:22.803Z,21.70
2022-09-03T09:10:59.096Z,21.93
2022-09-03T09:13:30.965Z,22.03
2022-09-03T09:16:07.378Z,22.15
2022-09-03T09:18:55.218Z,22.20
2022-09-03T09:21:29.726Z,22.19
2022-09-03T09:24:05.278Z,22.21
2022-09-03T09:26:35.643Z,22.32
2022-09-03T09:29:10.052Z,22.32
2022-09-03T09:31:44.775Z,22.65
2022-09-03T09:34:14.640Z,22.57
2022-09-03T09:36:45.503Z,22.61
2022-09-03T09:39:16.872Z,22.72
2022-09-03T09:41:56.109Z,22.87
2022-09-03T09:44:28.153Z,22.95
2022-09-03T09:47:07.951Z,23.06
2022-09-03T09:49:39.115Z,23.16
2022-09-03T09:52:12.043Z,23.17
2022-09-03T09:54:45.677Z,23.21
2022-09-03T09:57:18.322Z,23.37
2022-09-03T09:59:50.860Z,23.33
2022-09-03T10:02:27.925Z,23.61
2022-09-03T10:05:00.250Z,23.54
2022-09-03T10:07:39.951Z,23.08
2022-09-03T10:10:19.372Z,23.16
2022-09-03T10:12:52.058Z,23.27
2022-09-03T10:15:25.221Z,23.50
2022-09-03T10:18:10.046Z,23.71
2022-09-03T10:20:47.330Z,23.81
2022-09-03T10:23:22.846Z,23.82
2022-09-03T10:26:05.171Z,24.02
2022-09-03T10:28:39.486Z,24.16
2022-09-03T10:31:33.077Z,24.16
2022-09-03T10:34:07.914Z,24.12
2022-09-03T10:36:44.967Z,24.19
2022-09-03T10:39:17.822Z,24.43
2022-09-03T10:42:02.776Z,24.47
2022-09-03T10:44:44.219Z,24.67
2022-09-03T10:47:24.103Z,24.60
2022-09-03T10:49:59.263Z,24.81
2022-09-03T10:52:31.057Z,24.81
2022-09-03T10:55:14.078Z,24.73
2022-09-03T10:57:48.291Z,24.64
2022-09-03T11:00:24.862Z,24.61
2022-09-03T11:03:30.108Z,24.71
2022-09-03T11:06:06.421Z,24.72
2022-09-03T11:08:38.642Z,24.97
2022-09-03T11:11:16.728Z,25.13
2022-09-03T11:13:49.065Z,25.45
2022-09-03T11:16:20.760Z,25.47
2022-09-03T11:18:52.647Z,25.61
2022-09-03T11:21:27.520Z,25.85
2022-09-03T11:24:07.230Z,25.91
2022-09-03T11:26:36.326Z,25.73
2022-09-03T11:29:11.090Z,26.04
2022-09-03T11:31:48.274Z,26.10
2022-09-03T11:34:32.625Z,26.10
2022-09-03T11:37:19.929Z,26.31
2022-09-03T11:40:00.816Z,26.55
2022-09-03T11:42:33.709Z,26.40
2022-09-03T11:45:16.303Z,26.66
2022-09-03T11:47:47.118Z,26.85
2022-09-03T11:50:22.691Z,26.87
2022-09-03T11:52:54.592Z,26.72
2022-09-03T11:55:37.624Z,26.84
2022-09-03T11:58:14.219Z,27.03
2022-09-03T12:00:45.476Z,27.00
2022-09-03T12:03:18.110Z,27.05
2022-09-03T12:05:53.964Z,27.13
2022-09-03T12:08:50.048Z,27.15
2022-09-03T12:11:34.741Z,27.28
2022-09-03T12:14:13.861Z,27.44
2022-09-03T12:17:08.268Z,27.40
2022-09-03T12:19:41.882Z,27.47
2022-09-03T12:22:15.184Z,27.67
2022-09-03T12:24:46.445Z,27.80
2022-09-03T12:27:18.244Z,27.70
2022-09-03T12:30:00.151Z,27.46
2022-09-03T12:32:37.308Z,27.43
2022-09-03T12:35:57.739Z,27.30
2022-09-03T12:38:06.953Z,27.43
2022-09-03T12:43:49.974Z,27.87
2022-09-03T12:46:18.843Z,27.83
2022-09-03T12:51:52.099Z,28.21
2022-09-03T12:54:24.404Z,27.96
2022-09-03T12:56:56.897Z,27.99
2022-09-03T12:59:27.933Z,27.99
2022-09-03T13:01:59.799Z,28.08
2022-09-03T13:04:33.402Z,28.39
2022-09-03T13:07:04.663Z,28.12
2022-09-03T13:09:38.102Z,28.21
2022-09-03T13:12:08.949Z,28.24
2022-09-03T13:14:47.387Z,28.45
2022-09-03T13:17:47.674Z,28.69
2022-09-03T13:20:34.556Z,28.68
2022-09-03T13:23:11.997Z,28.78
2022-09-03T13:25:52.553Z,28.63
2022-09-03T13:28:33.963Z,28.77
2022-09-03T13:31:07.848Z,28.72
2022-09-03T13:33:42.053Z,28.72
2022-09-03T13:36:16.252Z,28.67
2022-09-03T13:38:51.098Z,28.31
2022-09-03T13:41:36.502Z,27.97
2022-09-03T13:44:16.018Z,28.11
2022-09-03T13:46:49.781Z,28.15
2022-09-03T13:49:47.295Z,27.85
2022-09-03T13:52:22.558Z,27.90
2022-09-03T13:54:55.832Z,27.69
2022-09-03T13:57:35.346Z,27.55
2022-09-03T14:00:08.563Z,27.35
2022-09-03T14:02:48.563Z,27.38
2022-09-03T14:05:21.337Z,27.19
2022-09-03T14:07:55.946Z,26.99
2022-09-03T14:10:32.240Z,27.04
2022-09-03T14:13:12.705Z,27.19
2022-09-03T14:15:49.638Z,27.25
2022-09-03T14:18:31.908Z,27.54
2022-09-03T14:21:04.888Z,27.35
2022-09-03T14:23:42.431Z,27.45
2022-09-03T14:26:18.292Z,27.58
2022-09-03T14:28:50.693Z,27.67
2022-09-03T14:31:28.276Z,27.55
2022-09-03T14:34:06.083Z,27.37
2022-09-03T14:36:40.650Z,27.30
2022-09-03T14:39:32.630Z,27.26
2022-09-03T14:42:30.533Z,27.30
2022-09-03T14:45:17.361Z,27.28
2022-09-03T14:48:00.220Z,27.31
2022-09-03T14:50:42.306Z,27.28
2022-09-03T14:53:26.678Z,27.43
2022-09-03T14:56:09.890Z,27.11
2022-09-03T14:58:50.597Z,26.89
2022-09-03T15:01:27.279Z,26.96
2022-09-03T15:04:32.772Z,26.91
2022-09-03T15:07:14.487Z,26.99
2022-09-03T15:09:48.188Z,27.05
2022-09-03T15:12:21.024Z,27.35
2022-09-03T15:14:55.282Z,27.29
2022-09-03T15:17:45.127Z,27.04
2022-09-03T15:20:23.875Z,27.03
2022-09-03T15:23:13.370Z,27.20
2022-09-03T15:26:23.113Z,27.50
2022-09-03T15:29:03.043Z,27.79
2022-09-03T15:31:45.321Z,27.73
2022-09-03T15:34:21.339Z,27.67
2022-09-03T15:36:53.886Z,27.78
2022-09-03T15:39:25.310Z,27.84
2022-09-03T15:41:58.542Z,27.48
2022-09-03T15:44:28.625Z,27.03
2022-09-03T15:47:00.671Z,26.55
2022-09-03T15:49:38.413Z,26.45
2022-09-03T15:52:24.939Z,26.91
2022-09-03T15:54:59.939Z,27.65
2022-09-03T15:57:30.684Z,28.27
2022-09-03T16:00:04.243Z,28.21
2022-09-03T16:02:47.480Z,28.53
2022-09-03T16:05:19.747Z,28.63
2022-09-03T16:08:09.570Z,28.94
2022-09-03T16:10:46.333Z,28.44
2022-09-03T16:13:34.788Z,27.70
2022-09-03T16:16:04.697Z,27.81
2022-09-03T16:18:37.090Z,27.94
2022-09-03T16:21:10.012Z,27.97
2022-09-03T16:23:43.378Z,28.34
2022-09-03T16:26:16.151Z,28.35
2022-09-03T16:28:50.358Z,28.31
2022-09-03T16:31:27.962Z,27.91
2022-09-03T16:34:03.451Z,27.64
2022-09-03T16:36:40.898Z,27.28
2022-09-03T16:39:18.085Z,26.55
2022-09-03T16:41:54.186Z,26.39
2022-09-03T16:44:28.834Z,26.21
2022-09-03T16:47:02.917Z,25.92
2022-09-03T16:49:44.335Z,25.88
2022-09-03T16:52:20.484Z,25.55
2022-09-03T16:55:04.366Z,25.23
2022-09-03T16:57:46.074Z,25.13
2022-09-03T17:00:15.942Z,25.10
2022-09-03T17:03:25.061Z,25.12
2022-09-03T17:06:23.002Z,24.83
2022-09-03T17:09:00.023Z,24.57
2022-09-03T17:11:43.136Z,24.52
2022-09-03T17:14:23.545Z,24.56
2022-09-03T17:17:00.201Z,24.55
2022-09-03T17:19:36.023Z,24.36
2022-09-03T17:22:13.107Z,24.40
2022-09-03T17:24:48.011Z,24.28
2022-09-03T17:27:42.047Z,24.20
2022-09-03T17:30:16.971Z,24.20
2022-09-03T17:33:06.600Z,24.17
2022-09-03T17:35:39.717Z,24.13
2022-09-03T17:38:19.165Z,24.10
2022-09-03T17:40:58.583Z,24.01
2022-09-03T17:43:36.477Z,23.98
2022-09-03T17:46:14.548Z,23.98
2022-09-03T17:48:51.401Z,23.96
2022-09-03T17:51:31.638Z,23.79
2022-09-03T17:54:07.167Z,23.86
2022-09-03T17:56:44.914Z,23.82
2022-09-03T17:59:22.677Z,23.85
2022-09-03T18:01:56.074Z,23.94
2022-09-03T18:04:35.908Z,23.77
2022-09-03T18:07:12.388Z,23.69
2022-09-03T18:09:47.732Z,23.65
2022-09-03T18:12:32.482Z,23.59
2022-09-03T18:15:08.999Z,23.60
2022-09-03T18:17:43.182Z,23.53
2022-09-03T18:20:31.901Z,23.54
2022-09-03T18:23:21.763Z,23.63
2022-09-03T18:26:10.706Z,23.45
2022-09-03T18:28:59.588Z,23.50
2022-09-03T18:31:49.397Z,23.53
2022-09-03T18:34:37.652Z,23.51
2022-09-03T18:37:24.998Z,23.55
2022-09-03T18:40:11.230Z,23.47
2022-09-03T18:43:07.102Z,23.38
2022-09-03T18:49:14.577Z,23.29
2022-09-03T18:52:05.338Z,23.11
2022-09-03T18:55:07.745Z,23.17
2022-09-03T18:58:02.196Z,23.11
2022-09-03T19:00:54.194Z,23.12
2022-09-03T19:03:54.827Z,23.18
2022-09-03T19:06:52.500Z,23.27
2022-09-03T19:09:50.713Z,23.25
2022-09-03T19:12:58.923Z,22.92
2022-09-03T19:15:49.070Z,22.85
2022-09-03T19:18:44.880Z,22.90
2022-09-03T19:21:39.702Z,22.72
2022-09-03T19:24:28.296Z,22.79
2022-09-03T19:27:51.829Z,22.93
2022-09-03T19:30:37.719Z,22.80
2022-09-03T19:33:30.944Z,22.81
2022-09-03T19:36:26.568Z,22.87
2022-09-03T19:39:25.407Z,22.67
2022-09-03T19:42:20.857Z,22.84
2022-09-03T19:45:18.252Z,22.78
2022-09-03T19:48:21.002Z,22.70
2022-09-03T19:51:19.712Z,22.64
2022-09-03T19:54:07.684Z,22.70
2022-09-03T19:56:55.804Z,22.56
2022-09-03T19:59:46.818Z,22.53
2022-09-03T20:02:33.562Z,22.59
2022-09-03T20:05:22.595Z,22.60
2022-09-03T20:08:10.983Z,22.54
2022-09-03T20:10:42.685Z,22.54
2022-09-03T20:13:15.033Z,22.56
2022-09-03T20:15:53.705Z,22.49
2022-09-03T20:18:34.091Z,22.47
2022-09-03T20:21:10.971Z,22.40
2022-09-03T20:23:48.253Z,22.37
2022-09-03T20:26:28.803Z,22.40
2022-09-03T20:29:35.285Z,22.27
2022-09-03T20:32:11.715Z,22.38
2022-09-03T20:34:48.678Z,22.28
2022-09-03T20:37:27.772Z,22.21
2022-09-03T20:40:09.928Z,22.22
2022-09-03T20:42:50.136Z,22.20
2022-09-03T20:45:21.621Z,22.30
2022-09-03T20:48:09.976Z,22.32
2022-09-03T20:50:48.645Z,22.23
2022-09-03T20:53:28.227Z,22.26
2022-09-03T20:56:03.687Z,22.17
2022-09-03T20:58:38.442Z,22.10
2022-09-03T21:01:10.151Z,22.12
2022-09-03T21:03:46.864Z,22.26
2022-09-03T21:06:25.493Z,22.14
2022-09-03T21:09:05.039Z,22.07
2022-09-03T21:11:39.589Z,21.92
2022-09-03T21:14:20.626Z,21.87
2022-09-03T21:17:00.270Z,21.94
2022-09-03T21:19:45.115Z,21.88
2022-09-03T21:22:22.990Z,21.92
2022-09-03T21:24:54.965Z,21.90
2022-09-03T21:27:25.843Z,21.81
2022-09-03T21:30:02.064Z,21.86
2022-09-03T21:32:36.765Z,21.74
2022-09-03T21:35:14.875Z,21.74
2022-09-03T21:37:49.469Z,21.63
2022-09-03T21:40:24.200Z,21.72
2022-09-03T21:42:59.885Z,21.73
2022-09-03T21:45:35.855Z,21.47
2022-09-03T21:48:07.783Z,21.52
2022-09-03T21:50:47.629Z,21.61
2022-09-03T21:53:25.689Z,21.72
2022-09-03T21:56:14.351Z,21.59
2022-09-03T21:58:54.584Z,21.51
2022-09-03T22:01:29.469Z,21.42
2022-09-03T22:03:59.729Z,21.48
2022-09-03T22:06:41.905Z,21.51
2022-09-03T22:09:15.241Z,21.39
2022-09-03T22:11:52.282Z,21.50
2022-09-03T22:14:23.603Z,21.28
2022-09-03T22:16:57.167Z,21.30
2022-09-03T22:19:37.666Z,21.39
2022-09-03T22:22:17.425Z,21.44
2022-09-03T22:24:51.119Z,21.52
2022-09-03T22:27:26.422Z,21.51
2022-09-03T22:30:03.808Z,21.57
2022-09-03T22:32:45.386Z,21.51
2022-09-03T22:35:36.572Z,21.61
2022-09-03T22:38:19.531Z,21.64
2022-09-03T22:40:52.486Z,21.63
2022-09-03T22:43:37.030Z,21.59
2022-09-03T22:46:09.026Z,21.58
2022-09-03T22:48:53.489Z,21.58
2022-09-03T22:51:22.136Z,21.61
2022-09-03T22:54:07.703Z,21.44
2022-09-03T22:56:39.662Z,21.43
2022-09-03T22:59:13.740Z,21.26
2022-09-03T23:01:44.941Z,21.17
2022-09-03T23:04:19.204Z,21.25
2022-09-03T23:06:53.397Z,21.28
2022-09-03T23:09:27.238Z,21.09
2022-09-03T23:11:58.890Z,21.10
2022-09-03T23:14:32.382Z,21.12
2022-09-03T23:17:07.534Z,21.10
2022-09-03T23:19:41.766Z,20.92
2022-09-03T23:22:13.607Z,21.01
2022-09-03T23:24:49.351Z,20.95
2022-09-03T23:27:20.032Z,20.96
2022-09-03T23:29:52.507Z,20.91
2022-09-03T23:32:20.702Z,20.75
2022-09-03T23:34:50.373Z,20.43
2022-09-03T23:37:34.171Z,20.36
2022-09-03T23:40:15.429Z,20.65
2022-09-03T23:42:54.967Z,20.38
2022-09-03T23:45:30.720Z,20.39
2022-09-03T23:48:04.935Z,20.38
2022-09-03T23:50:37.558Z,20.34
2022-09-03T23:53:26.288Z,20.41
2022-09-03T23:56:11.957Z,20.54
2022-09-03T23:58:53.576Z,20.21
